Time;durP1;ratioP1;P1;durP2;ratioP2;P2;SDS_P1;SDS_P2;PMS_P1;PMS_P2;Temp;Humidity;BMP_temperature;BMP_pressure;BME280_temperature;BME280_humidity;BME280_pressure;Samples;Min_cycle;Max_cycle;Signal;HPM_P1;HPM_P2
2022/03/05 00:00:39;;;;;;;34.90;17.17;;;-1.30;49.90;;;;;;5113836;28;20415;-60
2022/03/05 00:03:05;;;;;;;33.37;17.60;;;-1.40;50.00;;;;;;5110429;28;20414;-58
2022/03/05 00:05:31;;;;;;;40.90;17.90;;;-1.40;50.20;;;;;;5100463;28;20428;-58
2022/03/05 00:07:57;;;;;;;35.87;17.60;;;-1.50;50.30;;;;;;5107147;28;20576;-58
2022/03/05 00:10:23;;;;;;;36.20;17.13;;;-1.50;50.40;;;;;;5093861;28;20426;-59
2022/03/05 00:12:50;;;;;;;39.30;18.30;;;-1.50;50.50;;;;;;5093343;28;20258;-59
2022/03/05 00:15:16;;;;;;;32.83;16.43;;;-1.50;50.60;;;;;;5092524;28;20491;-59
2022/03/05 00:17:43;;;;;;;40.60;18.50;;;-1.50;50.70;;;;;;5104393;28;20418;-59
2022/03/05 00:20:10;;;;;;;37.23;17.40;;;-1.50;50.80;;;;;;5094737;28;20445;-59
2022/03/05 00:22:36;;;;;;;33.87;15.73;;;-1.50;50.70;;;;;;5092998;28;20512;-59
2022/03/05 00:25:05;;;;;;;40.53;17.60;;;-1.60;50.70;;;;;;5104775;28;21010;-59
2022/03/05 00:27:31;;;;;;;36.07;17.23;;;-1.60;50.80;;;;;;5102049;28;20417;-59
2022/03/05 00:29:57;;;;;;;36.93;16.93;;;-1.60;50.80;;;;;;5091966;28;20441;-59
2022/03/05 00:32:22;;;;;;;35.77;17.23;;;-1.60;51.00;;;;;;5097148;28;20278;-59
2022/03/05 00:34:48;;;;;;;34.43;18.00;;;-1.70;51.00;;;;;;5104659;28;20531;-59
2022/03/05 00:37:14;;;;;;;41.67;17.60;;;-1.70;51.00;;;;;;5097488;28;20251;-59
2022/03/05 00:39:40;;;;;;;42.00;17.20;;;-1.70;51.70;;;;;;5102623;28;20527;-59
2022/03/05 00:42:06;;;;;;;40.40;18.70;;;-1.70;51.30;;;;;;5103696;28;20183;-59
2022/03/05 00:44:32;;;;;;;39.30;16.77;;;-1.70;51.20;;;;;;5091119;28;20220;-58
2022/03/05 00:46:58;;;;;;;38.37;18.43;;;-1.80;51.10;;;;;;5102102;28;20431;-60
2022/03/05 00:49:24;;;;;;;39.27;17.63;;;-1.80;51.10;;;;;;5098508;28;20437;-58
2022/03/05 00:51:50;;;;;;;39.43;17.43;;;-1.80;51.10;;;;;;5105067;28;20420;-59
2022/03/05 00:54:16;;;;;;;32.60;16.23;;;-1.80;51.10;;;;;;5094576;28;20617;-59
2022/03/05 00:56:41;;;;;;;35.80;17.47;;;-1.90;51.10;;;;;;5098514;28;20464;-59
2022/03/05 00:59:08;;;;;;;29.00;15.73;;;-1.90;51.20;;;;;;5096985;28;20191;-59
2022/03/05 01:01:33;;;;;;;34.63;17.63;;;-1.90;51.20;;;;;;5102717;28;20202;-59
2022/03/05 01:03:59;;;;;;;40.63;18.80;;;-1.90;51.30;;;;;;5105779;28;20419;-59
2022/03/05 01:06:26;;;;;;;41.73;18.17;;;-1.90;51.40;;;;;;5101363;28;20702;-60
2022/03/05 01:08:52;;;;;;;38.87;16.90;;;-2.00;51.60;;;;;;5107003;28;20182;-58
2022/03/05 01:11:18;;;;;;;35.70;17.40;;;-2.00;51.70;;;;;;5107349;28;20442;-59
2022/03/05 01:13:45;;;;;;;39.50;18.57;;;-2.00;51.80;;;;;;5108780;28;20194;-59
2022/03/05 01:16:11;;;;;;;40.80;18.10;;;-2.00;51.80;;;;;;5098101;28;20431;-58
2022/03/05 01:18:37;;;;;;;39.87;18.87;;;-2.00;51.80;;;;;;5092210;28;20418;-60
2022/03/05 01:21:03;;;;;;;40.63;19.27;;;-2.00;51.70;;;;;;5094351;28;20468;-59
2022/03/05 01:23:28;;;;;;;40.63;19.37;;;-2.10;51.60;;;;;;5101377;28;20431;-59
2022/03/05 01:25:54;;;;;;;35.70;17.60;;;-2.10;51.60;;;;;;5091160;28;20960;-60
2022/03/05 01:28:19;;;;;;;37.67;16.07;;;-2.10;51.60;;;;;;5108106;28;20237;-59
2022/03/05 01:30:45;;;;;;;31.20;16.13;;;-2.20;51.60;;;;;;5099583;28;20204;-59
2022/03/05 01:33:15;;;;;;;42.40;17.23;;;-2.20;51.70;;;;;;5107345;28;20666;-59
2022/03/05 01:35:41;;;;;;;30.63;15.47;;;-2.20;51.80;;;;;;5107421;28;20257;-59
2022/03/05 01:38:07;;;;;;;27.53;14.90;;;-2.30;51.90;;;;;;5103785;28;20428;-59
2022/03/05 01:40:33;;;;;;;35.00;16.70;;;-2.30;51.90;;;;;;5110495;28;20538;-59
2022/03/05 01:42:59;;;;;;;32.03;14.77;;;-2.30;52.10;;;;;;5101608;28;20318;-59
2022/03/05 01:45:25;;;;;;;34.37;16.10;;;-2.40;52.20;;;;;;5109125;28;20415;-59
2022/03/05 01:47:51;;;;;;;34.87;16.63;;;-2.40;52.20;;;;;;5094055;28;20575;-58
2022/03/05 01:50:17;;;;;;;30.70;14.80;;;-2.40;52.30;;;;;;5096742;28;20455;-59
2022/03/05 01:52:42;;;;;;;29.23;14.57;;;-2.40;52.40;;;;;;5106359;28;20190;-59
2022/03/05 01:55:08;;;;;;;35.13;16.20;;;-2.40;52.40;;;;;;5099338;28;20198;-59
2022/03/05 01:57:34;;;;;;;31.90;16.33;;;-2.50;52.40;;;;;;5091639;28;20177;-58
2022/03/05 02:00:00;;;;;;;29.17;14.80;;;-2.50;52.40;;;;;;5089996;28;20504;-59
2022/03/05 02:02:25;;;;;;;27.80;15.47;;;-2.50;52.60;;;;;;5102333;28;20178;-58
2022/03/05 02:04:51;;;;;;;32.20;14.63;;;-2.60;52.70;;;;;;5092553;28;20801;-59
2022/03/05 02:07:17;;;;;;;52.17;18.27;;;-2.60;52.80;;;;;;5096916;28;20264;-59
2022/03/05 02:09:42;;;;;;;35.97;15.40;;;-2.60;52.90;;;;;;5093482;28;20431;-59
2022/03/05 02:12:09;;;;;;;36.80;17.30;;;-2.60;53.10;;;;;;5104896;28;20262;-59
2022/03/05 02:14:34;;;;;;;35.23;16.70;;;-2.70;53.20;;;;;;5098152;28;20196;-60
2022/03/05 02:17:00;;;;;;;38.33;16.03;;;-2.70;53.50;;;;;;5104626;28;20425;-59
2022/03/05 02:19:25;;;;;;;29.90;15.40;;;-2.70;53.50;;;;;;5105377;28;20171;-59
2022/03/05 02:21:51;;;;;;;29.60;15.03;;;-2.70;53.70;;;;;;5109118;28;20184;-59
2022/03/05 02:24:31;;;;;;;37.43;16.00;;;-2.70;53.70;;;;;;5097581;28;20529;-59
2022/03/05 02:26:58;;;;;;;33.37;15.00;;;-2.70;53.70;;;;;;5090444;28;20647;-59
2022/03/05 02:29:24;;;;;;;28.73;15.10;;;-2.70;53.70;;;;;;5099159;28;20915;-59
2022/03/05 02:31:49;;;;;;;38.33;17.17;;;-2.70;53.70;;;;;;5102851;28;20412;-59
2022/03/05 02:34:15;;;;;;;29.30;15.30;;;-2.70;53.50;;;;;;5108536;28;20190;-59
2022/03/05 02:36:40;;;;;;;31.40;15.90;;;-2.70;53.50;;;;;;5108610;28;20169;-59
2022/03/05 02:39:06;;;;;;;31.67;15.53;;;-2.70;53.40;;;;;;5101554;28;20223;-59
2022/03/05 02:41:32;;;;;;;31.90;16.43;;;-2.80;53.40;;;;;;5103460;28;20212;-57
2022/03/05 02:43:59;;;;;;;35.60;15.20;;;-2.90;53.50;;;;;;5104936;28;20181;-59
2022/03/05 02:46:28;;;;;;;33.70;15.60;;;-2.90;53.60;;;;;;5089852;28;20179;-58
2022/03/05 02:48:53;;;;;;;38.17;15.63;;;-2.80;53.70;;;;;;5093160;28;20436;-59
2022/03/05 02:51:20;;;;;;;36.90;14.60;;;-2.90;53.50;;;;;;5101121;28;20450;-58
2022/03/05 02:53:46;;;;;;;32.07;14.73;;;-2.90;53.50;;;;;;5096711;28;20254;-58
2022/03/05 02:56:12;;;;;;;29.70;15.20;;;-2.90;53.50;;;;;;5100308;28;20485;-59
2022/03/05 02:58:38;;;;;;;33.97;13.60;;;-3.00;53.50;;;;;;5093563;28;20574;-59
2022/03/05 03:01:03;;;;;;;34.27;15.37;;;-3.00;53.50;;;;;;5094570;28;20201;-57
2022/03/05 03:03:29;;;;;;;27.10;13.07;;;-3.00;53.50;;;;;;5093113;28;20186;-59
2022/03/05 03:05:55;;;;;;;24.40;13.00;;;-3.10;53.50;;;;;;5089078;28;20166;-58
2022/03/05 03:08:21;;;;;;;29.87;13.87;;;-3.10;53.60;;;;;;5089874;28;20523;-59
2022/03/05 03:10:46;;;;;;;27.10;13.67;;;-3.20;53.60;;;;;;5100995;28;20192;-58
2022/03/05 03:13:12;;;;;;;28.30;13.90;;;-3.20;53.80;;;;;;5098149;28;20206;-59
2022/03/05 03:15:38;;;;;;;31.73;13.57;;;-3.30;54.00;;;;;;5092182;28;20171;-58
2022/03/05 03:18:03;;;;;;;34.60;14.03;;;-3.30;54.20;;;;;;5098510;28;20264;-59
2022/03/05 03:20:29;;;;;;;34.17;15.03;;;-3.40;54.20;;;;;;5100686;28;20190;-57
2022/03/05 03:22:55;;;;;;;31.50;15.57;;;-3.40;54.20;;;;;;5091883;28;20218;-59
2022/03/05 03:25:21;;;;;;;32.90;14.60;;;-3.50;54.30;;;;;;5092638;28;20534;-59
2022/03/05 03:27:47;;;;;;;29.27;14.17;;;-3.50;54.50;;;;;;5108190;28;20188;-59
2022/03/05 03:30:15;;;;;;;28.73;13.47;;;-3.50;54.70;;;;;;5103748;28;20866;-57
2022/03/05 03:32:41;;;;;;;28.80;13.63;;;-3.50;54.90;;;;;;5098760;28;20643;-58
2022/03/05 03:35:08;;;;;;;32.50;13.77;;;-3.60;54.90;;;;;;5088628;28;20847;-58
2022/03/05 03:37:35;;;;;;;32.27;14.80;;;-3.60;55.00;;;;;;5088200;28;20420;-59
2022/03/05 03:40:04;;;;;;;36.50;15.77;;;-3.60;55.00;;;;;;5101568;28;20415;-57
2022/03/05 03:42:30;;;;;;;33.10;15.00;;;-3.70;55.10;;;;;;5094258;28;20935;-58
2022/03/05 03:44:56;;;;;;;30.10;13.33;;;-3.70;55.40;;;;;;5107598;28;20674;-59
2022/03/05 03:47:22;;;;;;;32.40;13.40;;;-3.70;55.60;;;;;;5099234;28;20199;-59
2022/03/05 03:49:49;;;;;;;25.20;13.33;;;-3.70;55.70;;;;;;5092575;28;20199;-59
2022/03/05 03:52:15;;;;;;;30.60;12.97;;;-3.70;55.90;;;;;;5100542;28;20428;-58
2022/03/05 03:54:43;;;;;;;28.70;13.47;;;-3.70;55.90;;;;;;5089360;28;20424;-59
2022/03/05 03:57:09;;;;;;;25.93;12.33;;;-3.70;55.90;;;;;;5088508;28;20430;-59
2022/03/05 03:59:34;;;;;;;29.50;13.00;;;-3.70;56.00;;;;;;5101944;28;20857;-56
2022/03/05 04:02:02;;;;;;;27.60;13.87;;;-3.70;55.80;;;;;;5096966;28;20411;-59
2022/03/05 04:04:28;;;;;;;27.40;14.10;;;-3.80;55.90;;;;;;5103153;28;20639;-59
2022/03/05 04:09:38;;;;;;;30.90;12.80;;;-3.80;57.00;;;;;;5097852;28;20430;-59
2022/03/05 04:12:04;;;;;;;33.93;14.30;;;-3.80;56.60;;;;;;5100702;28;20442;-58
2022/03/05 04:14:29;;;;;;;30.13;13.57;;;-3.80;56.70;;;;;;5088503;28;20229;-59
2022/03/05 04:16:55;;;;;;;26.80;13.50;;;-3.80;56.80;;;;;;5089242;28;20226;-58
2022/03/05 04:19:21;;;;;;;32.83;13.03;;;-3.70;57.00;;;;;;5092204;28;20574;-57
2022/03/05 04:21:46;;;;;;;30.00;14.27;;;-3.70;57.00;;;;;;5106302;28;20195;-58
2022/03/05 04:24:12;;;;;;;30.60;13.50;;;-3.80;57.00;;;;;;5094862;28;20660;-59
2022/03/05 04:26:38;;;;;;;29.93;14.00;;;-3.80;57.00;;;;;;5109871;28;20644;-58
2022/03/05 04:29:04;;;;;;;33.43;15.10;;;-3.80;57.20;;;;;;5097454;28;20171;-59
2022/03/05 04:31:30;;;;;;;27.87;13.90;;;-3.80;57.50;;;;;;5098249;28;20424;-58
2022/03/05 04:33:56;;;;;;;25.20;12.77;;;-3.80;57.60;;;;;;5110212;28;20496;-58
2022/03/05 04:36:22;;;;;;;34.17;14.30;;;-3.80;57.70;;;;;;5097457;28;20430;-57
2022/03/05 04:38:48;;;;;;;29.37;13.90;;;-3.80;58.20;;;;;;5096977;28;20461;-58
2022/03/05 04:41:14;;;;;;;26.80;13.20;;;-3.80;57.80;;;;;;5105788;28;20446;-58
2022/03/05 04:43:40;;;;;;;26.33;13.87;;;-3.80;57.70;;;;;;5106451;28;20442;-58
2022/03/05 04:46:06;;;;;;;27.17;11.90;;;-3.80;57.80;;;;;;5100986;28;20580;-58
2022/03/05 04:48:31;;;;;;;28.97;13.70;;;-3.80;57.90;;;;;;5104221;28;20209;-59
2022/03/05 04:50:57;;;;;;;22.40;11.83;;;-3.80;57.90;;;;;;5110921;28;20200;-58
2022/03/05 04:53:23;;;;;;;22.83;11.30;;;-3.80;57.90;;;;;;5105339;28;20666;-58
2022/03/05 04:55:49;;;;;;;27.07;13.53;;;-3.80;58.00;;;;;;5107711;28;20700;-58
2022/03/05 04:58:16;;;;;;;23.43;12.23;;;-3.80;58.00;;;;;;5093681;28;20166;-59
2022/03/05 05:00:41;;;;;;;23.37;12.03;;;-3.80;57.90;;;;;;5109216;28;20437;-58
2022/03/05 05:03:07;;;;;;;25.23;12.60;;;-3.80;57.80;;;;;;5099425;28;20423;-57
2022/03/05 05:05:33;;;;;;;22.77;12.57;;;-3.80;57.80;;;;;;5110072;28;20178;-59
2022/03/05 05:07:59;;;;;;;23.00;11.47;;;-3.90;57.80;;;;;;5106542;28;20446;-59
2022/03/05 05:10:24;;;;;;;35.23;13.00;;;-3.90;58.10;;;;;;5101706;28;20288;-58
2022/03/05 05:12:50;;;;;;;24.80;11.60;;;-3.90;58.50;;;;;;5107838;28;20162;-58
2022/03/05 05:15:16;;;;;;;25.63;12.50;;;-3.90;58.50;;;;;;5098246;28;20705;-59
2022/03/05 05:17:41;;;;;;;21.80;11.50;;;-3.90;58.30;;;;;;5106893;28;20171;-59
2022/03/05 05:20:08;;;;;;;27.30;13.00;;;-4.00;58.20;;;;;;5101632;28;20592;-59
2022/03/05 05:22:34;;;;;;;25.13;13.30;;;-3.90;58.30;;;;;;5102891;28;20231;-59
2022/03/05 05:25:00;;;;;;;24.70;12.20;;;-4.00;58.10;;;;;;5109404;28;20401;-59
2022/03/05 05:27:27;;;;;;;24.70;12.27;;;-4.00;58.10;;;;;;5093786;28;20172;-59
2022/03/05 05:29:53;;;;;;;28.70;13.80;;;-4.00;58.10;;;;;;5104464;28;20940;-59
2022/03/05 05:32:19;;;;;;;29.00;13.37;;;-4.00;58.30;;;;;;5096318;28;20390;-59
2022/03/05 05:34:44;;;;;;;25.40;13.07;;;-4.10;58.20;;;;;;5110441;28;20447;-59
2022/03/05 05:37:10;;;;;;;25.90;11.73;;;-4.10;58.30;;;;;;5108540;28;20224;-58
2022/03/05 05:39:36;;;;;;;29.93;12.73;;;-4.10;58.50;;;;;;5103882;28;20265;-58
2022/03/05 05:42:03;;;;;;;29.40;13.27;;;-4.10;58.30;;;;;;5099597;28;20403;-59
2022/03/05 05:44:28;;;;;;;27.63;12.93;;;-4.20;58.20;;;;;;5105051;28;20392;-58
2022/03/05 05:46:54;;;;;;;29.90;13.03;;;-4.20;58.50;;;;;;5095705;28;20456;-58
2022/03/05 05:49:20;;;;;;;33.57;12.23;;;-4.20;58.70;;;;;;5104025;28;20253;-58
2022/03/05 05:51:46;;;;;;;29.60;12.60;;;-4.20;59.10;;;;;;5106648;28;20580;-59
2022/03/05 05:54:11;;;;;;;26.73;12.83;;;-4.20;58.90;;;;;;5104581;28;21100;-57
2022/03/05 05:56:37;;;;;;;29.00;12.20;;;-4.30;58.80;;;;;;5090341;28;20639;-59
2022/03/05 05:59:04;;;;;;;25.20;12.17;;;-4.30;59.20;;;;;;5101667;28;20174;-59
2022/03/05 06:01:30;;;;;;;24.00;10.93;;;-4.30;59.20;;;;;;5107022;28;20186;-59
2022/03/05 06:03:56;;;;;;;22.53;11.00;;;-4.30;59.50;;;;;;5106835;28;20454;-58
2022/03/05 06:06:22;;;;;;;24.17;11.10;;;-4.30;59.60;;;;;;5095495;28;20249;-58
2022/03/05 06:08:49;;;;;;;21.30;10.17;;;-4.30;59.50;;;;;;5096593;28;20425;-58
2022/03/05 06:11:14;;;;;;;20.07;9.80;;;-4.30;59.80;;;;;;5095857;28;20533;-58
2022/03/05 06:13:41;;;;;;;19.00;9.50;;;-4.30;59.80;;;;;;5097346;28;20507;-59
2022/03/05 06:16:06;;;;;;;26.90;11.27;;;-4.20;59.80;;;;;;5105267;28;20915;-59
2022/03/05 06:18:33;;;;;;;23.20;10.43;;;-4.20;59.40;;;;;;5100356;28;20508;-57
2022/03/05 06:20:58;;;;;;;22.47;10.40;;;-4.20;59.60;;;;;;5097395;28;20465;-58
2022/03/05 06:23:24;;;;;;;19.50;9.90;;;-4.20;59.80;;;;;;5101136;28;20792;-58
2022/03/05 06:25:51;;;;;;;26.00;11.77;;;-4.20;60.00;;;;;;5101322;28;20181;-59
2022/03/05 06:28:17;;;;;;;23.00;11.30;;;-4.20;60.60;;;;;;5101852;28;20393;-58
2022/03/05 06:30:43;;;;;;;32.07;12.67;;;-4.20;60.80;;;;;;5098315;28;20453;-58
2022/03/05 06:33:08;;;;;;;25.53;12.30;;;-4.20;60.50;;;;;;5104347;28;20854;-58
2022/03/05 06:35:34;;;;;;;21.83;10.20;;;-4.20;60.70;;;;;;5103384;28;20175;-59
2022/03/05 06:38:00;;;;;;;21.50;10.33;;;-4.20;61.00;;;;;;5099567;28;20174;-58
2022/03/05 06:40:25;;;;;;;20.83;11.47;;;-4.20;61.10;;;;;;5105525;28;20236;-58
2022/03/05 06:42:51;;;;;;;25.13;11.17;;;-4.20;61.50;;;;;;5105696;28;20270;-58
2022/03/05 06:45:17;;;;;;;21.50;10.90;;;-4.20;60.80;;;;;;5101794;28;20179;-59
2022/03/05 06:47:43;;;;;;;20.80;10.40;;;-4.10;60.90;;;;;;5097653;28;20171;-58
2022/03/05 06:50:11;;;;;;;21.90;11.07;;;-4.10;61.20;;;;;;5108412;28;20411;-58
2022/03/05 06:52:37;;;;;;;23.90;11.50;;;-4.00;61.50;;;;;;5097838;28;20955;-58
2022/03/05 06:55:04;;;;;;;22.50;11.30;;;-3.90;61.60;;;;;;5089411;28;20449;-57
2022/03/05 06:57:30;;;;;;;22.03;11.20;;;-3.90;61.90;;;;;;5095594;28;20928;-59
2022/03/05 06:59:56;;;;;;;21.90;11.00;;;-3.80;61.70;;;;;;5106043;28;20444;-58
2022/03/05 07:02:22;;;;;;;26.03;11.43;;;-3.70;61.60;;;;;;5100962;28;20397;-60
2022/03/05 07:04:49;;;;;;;21.03;10.40;;;-3.60;61.20;;;;;;5092953;28;20427;-59
2022/03/05 07:07:15;;;;;;;26.10;11.57;;;-3.50;61.30;;;;;;5097859;28;20415;-59
2022/03/05 07:09:41;;;;;;;21.23;11.97;;;-3.40;61.10;;;;;;5100018;28;20430;-59
2022/03/05 07:12:07;;;;;;;23.10;11.07;;;-3.20;61.60;;;;;;5097293;28;20433;-58
2022/03/05 07:14:33;;;;;;;21.70;10.70;;;-3.10;61.80;;;;;;5102838;28;20202;-59
2022/03/05 07:16:58;;;;;;;26.47;12.50;;;-3.00;61.90;;;;;;5103592;28;21054;-60
2022/03/05 07:19:24;;;;;;;38.73;13.10;;;-2.80;61.90;;;;;;5097293;28;20619;-59
2022/03/05 07:21:50;;;;;;;26.07;13.17;;;-2.70;62.00;;;;;;5099195;28;20190;-60
2022/03/05 07:24:16;;;;;;;28.70;12.40;;;-2.50;61.80;;;;;;5107745;28;20188;-59
2022/03/05 07:26:41;;;;;;;29.70;13.07;;;-2.40;61.40;;;;;;5098179;28;20269;-60
2022/03/05 07:29:07;;;;;;;29.70;13.37;;;-2.30;61.20;;;;;;5094214;28;20661;-59
2022/03/05 07:31:33;;;;;;;39.50;13.57;;;-2.10;60.90;;;;;;5089819;28;20237;-60
2022/03/05 07:33:58;;;;;;;44.40;13.23;;;-2.00;60.80;;;;;;5092419;28;20636;-59
2022/03/05 07:36:24;;;;;;;30.50;14.63;;;-1.90;60.70;;;;;;5095045;28;20175;-59
2022/03/05 07:38:51;;;;;;;29.20;13.90;;;-1.80;61.00;;;;;;5104571;28;20170;-59
2022/03/05 07:41:17;;;;;;;34.23;13.80;;;-1.60;60.40;;;;;;5097805;28;20365;-59
2022/03/05 07:43:44;;;;;;;33.60;13.07;;;-1.50;60.40;;;;;;5107216;28;20438;-60
2022/03/05 07:46:09;;;;;;;29.50;13.80;;;-1.40;60.10;;;;;;5105231;28;20421;-59
2022/03/05 07:48:35;;;;;;;30.97;14.60;;;-1.20;59.70;;;;;;5094664;28;20961;-60
2022/03/05 07:51:02;;;;;;;35.47;15.87;;;-1.00;59.40;;;;;;5097335;28;20218;-60
2022/03/05 07:53:34;;;;;;;33.80;15.67;;;-0.90;59.20;;;;;;5104531;28;20206;-60
2022/03/05 07:56:00;;;;;;;27.90;15.33;;;-0.80;59.00;;;;;;5111451;28;20511;-60
2022/03/05 07:58:26;;;;;;;34.63;15.60;;;-0.70;59.00;;;;;;5107616;28;20425;-60
2022/03/05 08:00:51;;;;;;;38.10;16.37;;;-0.60;58.30;;;;;;5104599;28;20467;-59
2022/03/05 08:03:17;;;;;;;35.90;17.73;;;-0.50;57.80;;;;;;5103889;28;20636;-59
2022/03/05 08:05:43;;;;;;;35.27;16.30;;;-0.40;57.50;;;;;;5098571;28;20178;-59
2022/03/05 08:08:10;;;;;;;30.67;16.17;;;-0.30;57.30;;;;;;5104039;28;20167;-59
2022/03/05 08:10:36;;;;;;;41.83;17.23;;;-0.20;57.20;;;;;;5104241;28;20448;-60
2022/03/05 08:13:01;;;;;;;34.40;15.53;;;-0.20;56.90;;;;;;5097508;28;20439;-59
2022/03/05 08:15:27;;;;;;;31.37;14.83;;;-0.10;57.00;;;;;;5097123;28;20468;-60
2022/03/05 08:17:55;;;;;;;38.13;16.40;;;0.00;57.00;;;;;;5098047;28;20179;-59
2022/03/05 08:20:22;;;;;;;41.50;16.60;;;0.10;56.80;;;;;;5104515;28;20193;-59
2022/03/05 08:22:48;;;;;;;35.10;14.93;;;0.10;56.50;;;;;;5111747;28;21011;-60
2022/03/05 08:25:14;;;;;;;36.57;16.30;;;0.20;56.40;;;;;;5108170;28;20516;-59
2022/03/05 08:27:40;;;;;;;43.70;17.33;;;0.30;56.40;;;;;;5092694;28;20428;-60
2022/03/05 08:30:06;;;;;;;39.90;17.27;;;0.40;55.90;;;;;;5099324;28;20263;-59
2022/03/05 08:32:32;;;;;;;39.93;16.30;;;0.50;55.80;;;;;;5111686;28;20184;-60
2022/03/05 08:34:58;;;;;;;35.60;16.40;;;0.50;55.60;;;;;;5104538;28;20467;-60
2022/03/05 08:37:23;;;;;;;34.97;16.13;;;0.60;55.50;;;;;;5096676;28;20232;-60
2022/03/05 08:39:49;;;;;;;33.67;16.10;;;0.70;55.30;;;;;;5091271;27;20639;-59
2022/03/05 08:42:14;;;;;;;34.53;15.60;;;0.80;54.80;;;;;;5101509;28;20179;-61
2022/03/05 08:44:41;;;;;;;32.83;16.70;;;0.90;55.50;;;;;;5095490;28;20170;-60
2022/03/05 08:47:06;;;;;;;34.57;16.97;;;1.10;57.20;;;;;;5100913;28;20266;-61
2022/03/05 08:49:32;;;;;;;37.77;16.30;;;1.30;56.00;;;;;;5102793;28;22466;-62
2022/03/05 08:51:58;;;;;;;30.50;15.27;;;1.50;54.80;;;;;;5100833;28;20837;-61
2022/03/05 08:54:25;;;;;;;36.80;15.40;;;1.50;53.50;;;;;;5098640;28;20192;-63
2022/03/05 08:56:51;;;;;;;37.27;16.03;;;1.60;52.70;;;;;;5098760;27;20544;-61
2022/03/05 08:59:17;;;;;;;34.43;15.77;;;1.60;52.50;;;;;;5101592;27;20425;-60
2022/03/05 09:01:42;;;;;;;34.60;16.03;;;1.60;52.50;;;;;;5097624;27;20199;-61
2022/03/05 09:04:08;;;;;;;33.50;16.10;;;1.60;52.30;;;;;;5099562;27;20176;-61
2022/03/05 09:06:34;;;;;;;29.83;14.60;;;1.70;52.00;;;;;;5107005;28;20187;-61
2022/03/05 09:09:00;;;;;;;28.50;15.03;;;1.70;51.40;;;;;;5096899;28;20176;-60
2022/03/05 09:11:26;;;;;;;35.17;14.90;;;1.80;51.20;;;;;;5101299;28;20826;-61
2022/03/05 09:13:52;;;;;;;29.23;14.07;;;1.90;51.00;;;;;;5100757;28;20200;-61
2022/03/05 09:16:17;;;;;;;30.10;15.00;;;1.90;51.10;;;;;;5099369;28;20958;-62
2022/03/05 09:18:43;;;;;;;28.03;13.90;;;2.00;51.10;;;;;;5100112;27;20486;-61
2022/03/05 09:21:09;;;;;;;32.90;16.50;;;2.10;51.10;;;;;;5102641;28;20230;-61
2022/03/05 09:23:34;;;;;;;36.77;18.50;;;2.20;50.60;;;;;;5098866;27;20914;-61
2022/03/05 09:26:00;;;;;;;24.73;13.17;;;2.20;49.90;;;;;;5095813;28;20890;-61
2022/03/05 09:28:26;;;;;;;27.63;14.27;;;2.30;49.90;;;;;;5098739;28;20567;-61
2022/03/05 09:30:52;;;;;;;26.47;13.07;;;2.50;49.80;;;;;;5094130;27;20204;-61
2022/03/05 09:33:21;;;;;;;30.03;13.90;;;2.50;48.70;;;;;;5098005;28;20253;-61
2022/03/05 09:35:46;;;;;;;26.50;13.80;;;2.60;48.90;;;;;;5099388;27;20266;-60
2022/03/05 09:38:12;;;;;;;28.80;14.13;;;2.70;49.10;;;;;;5100102;28;20503;-61
2022/03/05 09:40:39;;;;;;;27.73;12.63;;;2.80;48.70;;;;;;5097231;28;20208;-61
2022/03/05 09:43:05;;;;;;;25.30;12.93;;;2.90;48.50;;;;;;5098963;28;20181;-60
2022/03/05 09:45:30;;;;;;;24.37;13.40;;;3.00;47.90;;;;;;5097637;28;20481;-58
2022/03/05 09:47:56;;;;;;;21.63;12.20;;;3.10;47.40;;;;;;5098705;28;20651;-57
2022/03/05 09:50:26;;;;;;;25.77;12.63;;;3.20;47.60;;;;;;5094581;27;20573;-57
2022/03/05 09:52:51;;;;;;;25.60;13.37;;;3.30;46.50;;;;;;5100670;28;20429;-59
2022/03/05 09:55:17;;;;;;;22.70;11.67;;;3.40;46.40;;;;;;5090469;27;20873;-58
2022/03/05 09:57:43;;;;;;;20.50;10.93;;;3.50;45.90;;;;;;5092455;28;20172;-60
2022/03/05 10:00:09;;;;;;;23.33;12.00;;;3.60;45.50;;;;;;5081597;28;20205;-62
2022/03/05 10:02:35;;;;;;;25.23;12.00;;;3.70;45.30;;;;;;5087309;27;20196;-62
2022/03/05 10:05:28;;;;;;;22.00;10.53;;;3.80;45.30;;;;;;5088818;28;20946;-60
2022/03/05 10:08:08;;;;;;;19.63;11.30;;;3.90;44.70;;;;;;5085057;28;20224;-64
2022/03/05 10:10:43;;;;;;;23.80;11.73;;;4.00;43.70;;;;;;5088013;27;20473;-62
2022/03/05 10:13:26;;;;;;;19.13;9.87;;;4.10;44.00;;;;;;5087184;28;20434;-60
2022/03/05 10:15:54;;;;;;;22.77;11.73;;;4.20;43.40;;;;;;5086992;28;21016;-60
2022/03/05 10:18:27;;;;;;;20.30;11.10;;;4.30;43.50;;;;;;5089118;22;20599;-60
2022/03/05 10:20:53;;;;;;;22.23;11.10;;;4.40;43.00;;;;;;5071443;28;20484;-60
2022/03/05 10:23:20;;;;;;;22.90;12.10;;;4.50;42.60;;;;;;5079417;28;20428;-59
2022/03/05 10:25:48;;;;;;;25.73;11.30;;;4.60;42.60;;;;;;5078606;28;20425;-59
2022/03/05 10:28:18;;;;;;;18.20;10.57;;;4.70;42.60;;;;;;5077868;28;20534;-60
2022/03/05 10:30:45;;;;;;;20.80;12.37;;;4.80;42.50;;;;;;5078437;28;20459;-59
2022/03/05 10:33:33;;;;;;;19.40;11.00;;;4.90;42.00;;;;;;5079483;28;20424;-58
2022/03/05 10:36:02;;;;;;;21.10;10.20;;;5.00;42.00;;;;;;5075281;28;20526;-57
2022/03/05 10:38:47;;;;;;;18.03;9.60;;;5.10;41.10;;;;;;5077155;28;20566;-57
2022/03/05 10:41:17;;;;;;;22.37;10.70;;;5.20;40.40;;;;;;5074550;28;20433;-58
2022/03/05 10:43:44;;;;;;;20.80;10.70;;;5.40;40.40;;;;;;5086312;28;20800;-57
2022/03/05 10:46:10;;;;;;;18.47;9.77;;;5.50;40.40;;;;;;5088300;28;20474;-56
2022/03/05 10:48:40;;;;;;;21.40;11.20;;;5.60;40.30;;;;;;5089666;28;20467;-56
2022/03/05 10:51:14;;;;;;;16.80;10.07;;;5.80;40.10;;;;;;5079286;28;20170;-58
2022/03/05 10:53:48;;;;;;;19.97;11.47;;;5.90;39.80;;;;;;5079526;28;20952;-56
2022/03/05 10:56:26;;;;;;;20.60;10.40;;;6.00;40.20;;;;;;5075881;28;20426;-59
2022/03/05 10:59:01;;;;;;;19.20;10.23;;;6.10;39.60;;;;;;5086411;28;20480;-58
2022/03/05 11:01:27;;;;;;;17.70;9.53;;;6.20;39.30;;;;;;5107756;28;20444;-58
2022/03/05 11:03:53;;;;;;;16.43;9.30;;;6.30;38.50;;;;;;5089926;28;20497;-58
2022/03/05 11:06:20;;;;;;;15.77;8.20;;;6.40;38.50;;;;;;5087586;28;20423;-56
2022/03/05 11:08:47;;;;;;;19.90;9.20;;;6.40;37.60;;;;;;5080109;28;20455;-51
2022/03/05 11:11:15;;;;;;;16.17;9.27;;;6.50;36.60;;;;;;5076645;28;20853;-56
2022/03/05 11:13:41;;;;;;;15.47;8.43;;;6.50;36.80;;;;;;5080702;28;20456;-56
2022/03/05 11:16:07;;;;;;;17.40;9.27;;;6.60;36.40;;;;;;5077121;28;20427;-55
2022/03/05 11:18:33;;;;;;;14.17;8.13;;;6.70;35.60;;;;;;5068832;28;20988;-56
2022/03/05 11:21:00;;;;;;;17.90;8.80;;;6.80;34.60;;;;;;5073662;28;20451;-54
2022/03/05 11:23:26;;;;;;;15.83;9.53;;;7.00;36.20;;;;;;5070972;28;20188;-55
2022/03/05 11:25:53;;;;;;;17.73;9.70;;;7.20;35.60;;;;;;5086064;28;20408;-57
2022/03/05 11:28:19;;;;;;;19.53;10.07;;;7.50;35.30;;;;;;5088201;28;20443;-56
2022/03/05 11:30:45;;;;;;;15.77;8.67;;;7.90;35.00;;;;;;5084886;28;20423;-56
2022/03/05 11:33:35;;;;;;;17.70;9.57;;;8.30;34.40;;;;;;5088546;28;20523;-56
2022/03/05 11:36:06;;;;;;;19.80;9.30;;;8.80;33.50;;;;;;5079847;28;20492;-57
2022/03/05 11:38:32;;;;;;;17.10;9.53;;;9.30;32.80;;;;;;5084784;28;20452;-56
2022/03/05 11:40:58;;;;;;;16.30;8.77;;;9.70;31.80;;;;;;5090485;28;20412;-57
2022/03/05 11:43:25;;;;;;;14.43;9.67;;;10.10;30.30;;;;;;5086425;28;20967;-58
2022/03/05 11:46:03;;;;;;;16.53;9.37;;;10.60;30.10;;;;;;5085840;28;20173;-59
2022/03/05 11:48:30;;;;;;;15.67;9.00;;;11.00;29.20;;;;;;5085077;28;20463;-56
2022/03/05 11:51:01;;;;;;;17.23;9.67;;;11.50;28.70;;;;;;5088953;28;20435;-55
2022/03/05 11:53:28;;;;;;;17.63;9.80;;;11.90;28.20;;;;;;5089184;28;20424;-56
2022/03/05 11:55:54;;;;;;;12.50;8.80;;;12.20;28.70;;;;;;5086990;28;20541;-57
2022/03/05 11:58:30;;;;;;;14.43;9.33;;;12.50;28.00;;;;;;5088220;28;20886;-57
2022/03/05 12:00:57;;;;;;;15.03;10.03;;;12.80;27.50;;;;;;5076692;28;20439;-56
2022/03/05 12:03:37;;;;;;;16.83;11.73;;;13.20;27.40;;;;;;5091227;28;20428;-59
2022/03/05 12:06:04;;;;;;;16.97;10.60;;;13.60;27.20;;;;;;5078484;28;20427;-58
2022/03/05 12:08:30;;;;;;;16.13;10.70;;;13.70;27.00;;;;;;5088124;28;20439;-59
2022/03/05 12:11:15;;;;;;;17.87;10.27;;;13.60;26.50;;;;;;5090139;28;20404;-59
2022/03/05 12:13:43;;;;;;;15.90;10.37;;;13.50;26.80;;;;;;5090545;28;20268;-59
2022/03/05 12:16:25;;;;;;;15.63;10.10;;;13.60;26.90;;;;;;5075233;28;20436;-59
2022/03/05 12:18:54;;;;;;;16.40;10.27;;;13.70;26.80;;;;;;5081381;28;20427;-59
2022/03/05 12:21:31;;;;;;;14.90;10.10;;;13.70;26.40;;;;;;5082414;28;20416;-59
2022/03/05 12:24:05;;;;;;;15.20;10.30;;;13.80;26.30;;;;;;5085461;28;21129;-59
2022/03/05 12:26:40;;;;;;;15.73;10.00;;;13.80;25.80;;;;;;5071046;28;20449;-58
2022/03/05 12:29:08;;;;;;;20.50;10.17;;;13.80;26.10;;;;;;5083449;28;20814;-57
2022/03/05 12:31:37;;;;;;;17.90;10.73;;;13.60;26.20;;;;;;5089945;28;20438;-57